createdAt,value
2017-07-18T18:15:22.098Z,3.38
2017-07-18T18:17:48.874Z,3.30
2017-07-18T18:20:15.705Z,3.46
2017-07-18T18:22:43.515Z,3.16
2017-07-18T18:25:12.405Z,3.40
2017-07-18T18:27:40.095Z,3.00
2017-07-18T18:30:08.026Z,3.50
2017-07-18T18:32:37.407Z,2.94
2017-07-18T18:37:37.081Z,2.88
2017-07-18T18:42:39.207Z,3.14
2017-07-18T18:45:09.168Z,3.14
2017-07-18T18:47:36.814Z,3.44
2017-07-18T18:50:07.390Z,3.22
2017-07-18T18:52:36.249Z,3.26
2017-07-18T18:55:03.013Z,3.24
2017-07-18T18:57:31.515Z,3.10
2017-07-18T18:59:59.339Z,2.66
2017-07-18T19:02:26.358Z,2.58
2017-07-18T19:04:53.154Z,2.90
2017-07-18T19:07:21.612Z,2.62
2017-07-18T19:09:49.763Z,3.34
2017-07-18T19:12:21.849Z,3.62
2017-07-18T19:14:48.845Z,3.30
2017-07-18T19:17:17.454Z,3.50
2017-07-18T19:19:44.280Z,3.22
2017-07-18T19:22:13.591Z,2.98
2017-07-18T19:24:40.719Z,3.72
2017-07-18T19:27:07.724Z,3.08
2017-07-18T19:29:39.581Z,3.72
2017-07-18T19:32:06.912Z,3.50
2017-07-18T19:34:34.387Z,4.28
2017-07-18T19:37:02.040Z,3.44
2017-07-18T19:39:31.411Z,4.18
2017-07-18T19:41:58.832Z,3.54
2017-07-18T19:44:25.611Z,3.66
2017-07-18T19:46:53.827Z,4.58
2017-07-18T19:49:21.051Z,3.28
2017-07-18T19:51:50.932Z,3.82
2017-07-18T19:54:17.709Z,3.88
2017-07-18T19:56:45.019Z,4.22
2017-07-18T19:59:13.260Z,3.80
2017-07-18T20:01:40.517Z,3.86
2017-07-18T20:04:07.323Z,3.48
2017-07-18T20:06:38.012Z,3.50
2017-07-18T20:09:06.683Z,3.56
2017-07-18T20:11:40.676Z,3.10
2017-07-18T20:14:07.821Z,3.40
2017-07-18T20:16:34.600Z,3.78
2017-07-18T20:19:02.249Z,4.20
2017-07-18T20:21:30.423Z,3.86
2017-07-18T20:23:57.157Z,3.48
2017-07-18T20:26:25.373Z,3.64
2017-07-18T20:28:55.100Z,3.98
2017-07-18T20:31:22.559Z,3.70
2017-07-18T20:33:50.063Z,3.88
2017-07-18T20:36:16.816Z,3.70
2017-07-18T20:38:45.670Z,3.22
2017-07-18T20:41:13.387Z,3.64
2017-07-18T20:43:40.857Z,3.44
2017-07-18T20:46:07.718Z,4.36
2017-07-18T20:48:37.087Z,4.06
2017-07-18T20:51:09.636Z,4.30
2017-07-18T20:53:36.404Z,4.26
2017-07-18T20:58:41.454Z,4.22
2017-07-18T21:01:08.311Z,3.92
2017-07-18T21:03:37.619Z,4.20
2017-07-18T21:06:05.845Z,4.52
2017-07-18T21:08:33.838Z,4.38
2017-07-18T21:11:00.622Z,4.22
2017-07-18T21:13:29.941Z,4.36
2017-07-18T21:15:57.361Z,4.60
2017-07-18T21:18:24.976Z,5.16
2017-07-18T21:20:52.056Z,4.54
2017-07-18T21:23:20.249Z,4.58
2017-07-18T21:28:19.931Z,4.72
2017-07-18T21:30:49.769Z,4.70
2017-07-18T21:33:18.192Z,4.74
2017-07-18T21:35:45.914Z,5.04
2017-07-18T21:38:13.416Z,4.44
2017-07-18T21:40:45.849Z,4.23
2017-07-18T21:43:13.553Z,6.70
2017-07-18T21:45:43.438Z,8.00
2017-07-18T21:48:10.597Z,4.68
2017-07-18T21:50:37.662Z,4.98
2017-07-18T21:53:06.164Z,5.00
2017-07-18T21:55:33.688Z,5.26
2017-07-18T21:58:03.386Z,5.90
2017-07-18T22:00:30.961Z,4.57
2017-07-18T22:02:59.933Z,4.66
2017-07-18T22:05:28.746Z,4.44
2017-07-18T22:07:58.519Z,4.28
2017-07-18T22:10:26.054Z,5.32
2017-07-18T22:12:52.826Z,5.02
2017-07-18T22:15:22.137Z,4.84
2017-07-18T22:17:49.911Z,4.34
2017-07-18T22:20:18.683Z,4.64
2017-07-18T22:22:45.738Z,4.77
2017-07-18T22:25:12.871Z,4.48
2017-07-18T22:27:40.772Z,4.75
2017-07-18T22:30:09.317Z,4.68
2017-07-18T22:32:36.108Z,4.84
2017-07-18T22:35:03.266Z,4.95
2017-07-18T22:37:34.137Z,5.16
2017-07-18T22:40:02.452Z,5.38
2017-07-18T22:42:30.084Z,4.65
2017-07-18T22:45:02.156Z,5.18
2017-07-18T22:47:30.180Z,4.90
2017-07-18T22:49:59.052Z,5.00
2017-07-18T22:52:26.821Z,5.97
2017-07-18T22:54:55.351Z,5.68
2017-07-18T22:57:23.141Z,5.60
2017-07-18T22:59:49.895Z,5.90
2017-07-18T23:02:17.157Z,4.80
2017-07-18T23:04:44.434Z,5.82
2017-07-18T23:07:14.753Z,5.07
2017-07-18T23:09:42.415Z,5.27
2017-07-18T23:12:10.420Z,5.12
2017-07-18T23:14:38.286Z,5.87
2017-07-18T23:17:05.504Z,5.43
2017-07-18T23:19:32.725Z,5.43
2017-07-18T23:22:01.623Z,5.18
2017-07-18T23:24:29.877Z,5.37
2017-07-18T23:26:57.342Z,5.22
2017-07-18T23:29:25.624Z,5.18
2017-07-18T23:31:53.048Z,5.15
2017-07-18T23:34:19.890Z,4.88
2017-07-18T23:36:46.707Z,5.18
2017-07-18T23:39:14.205Z,5.63
2017-07-18T23:41:42.786Z,5.88
2017-07-18T23:44:12.523Z,5.38
2017-07-18T23:46:40.241Z,5.13
2017-07-18T23:49:07.914Z,5.37
2017-07-18T23:51:35.362Z,5.42
2017-07-18T23:54:02.602Z,5.47
2017-07-18T23:56:31.428Z,5.55
2017-07-18T23:58:59.869Z,6.37
